»·PEaware :: N463SP KWJF-L35

N463SP :: KWJF-L35

FLIGHT INFORMATION

Flight Status: Arrived
Operator: Privately registered:
United States
More flights under this callsign
Pilot: Utku A. (15598)
Aircraft: Unknown
(DA62)
More flights by this aircraft type
Origin: KWJF Gen Fox
United States
Destination: L35 Big Bear City
United States
More flights between these airports :: More routes between these airports
Route: +PMD V137 ARRAN DAWNA
File this flight plan on PilotEdge
Remarks:
Altitude:
(Current/Filed)
11,000ft
Speed:
(Current/Filed)
170kts
Departed: 26-Jun-18 03:02 PM
Arrived: 26-Jun-18 03:32 PM
Distance/Time
Traveled:
73nm/0:30
Distance/Time
To Go:
Arrived

Flight Plot

Page will automatically refresh every two minutes.

Flight plan parsing failed; only flown route is shown


Map Options




Map Legend


Flown Route
Filed Route
Departure Airport
Arrival Airport
Navaid (VOR, NDB)
Fix

Horizontal Profiles

Position Reports

Time Latitude Longitude Heading Altitude Ground
Speed
26-Jun-18 14:37 34.738916 -118.212560 344 2339ft 0kts
26-Jun-18 14:38 34.738916 -118.212560 344 2339ft 0kts
26-Jun-18 14:39 34.738916 -118.212560 344 2339ft 0kts
26-Jun-18 14:40 34.738916 -118.212560 344 2339ft 0kts
26-Jun-18 14:41 34.738916 -118.212560 344 2339ft 0kts
26-Jun-18 14:42 34.738916 -118.212560 344 2339ft 0kts
26-Jun-18 14:43 34.738916 -118.212560 344 2339ft 0kts
26-Jun-18 14:44 34.738916 -118.212560 344 2339ft 0kts
26-Jun-18 14:45 34.738916 -118.212560 344 2339ft 0kts
26-Jun-18 14:46 34.738916 -118.212560 344 2339ft 0kts
26-Jun-18 14:47 34.738916 -118.212560 344 2339ft 0kts
26-Jun-18 14:48 34.738916 -118.212560 344 2339ft 0kts
26-Jun-18 14:49 34.738916 -118.212560 344 2339ft 0kts
26-Jun-18 14:50 34.738916 -118.212560 344 2339ft 0kts
26-Jun-18 14:51 34.738916 -118.212560 344 2339ft 0kts
26-Jun-18 14:52 34.738916 -118.212560 344 2339ft 0kts
26-Jun-18 14:53 34.738916 -118.212560 344 2339ft 0kts
26-Jun-18 14:54 34.738916 -118.212560 344 2339ft 0kts
26-Jun-18 14:55 34.738916 -118.212560 344 2339ft 0kts
26-Jun-18 14:56 34.740187 -118.213200 345 2340ft 12kts
26-Jun-18 14:57 34.742189 -118.210702 73 2338ft 17kts
26-Jun-18 14:58 34.743214 -118.207126 39 2334ft 0kts
26-Jun-18 14:59 34.743214 -118.207126 39 2334ft 0kts
26-Jun-18 15:00 34.743214 -118.207126 39 2334ft 0kts
26-Jun-18 15:01 34.743214 -118.207126 39 2334ft 0kts
26-Jun-18 15:02 34.742091 -118.214794 252 2341ft 79kts
26-Jun-18 15:03 34.732692 -118.240585 206 3031ft 96kts
26-Jun-18 15:04 34.719563 -118.210329 99 4042ft 122kts
26-Jun-18 15:05 34.718218 -118.169980 137 5000ft 121kts
26-Jun-18 15:06 34.694619 -118.142497 143 6039ft 119kts
26-Jun-18 15:07 34.671336 -118.113360 136 7049ft 121kts
26-Jun-18 15:08 34.646608 -118.082168 138 7815ft 138kts
26-Jun-18 15:09 34.622782 -118.043965 120 8511ft 150kts
26-Jun-18 15:10 34.603300 -117.998251 118 9187ft 155kts
26-Jun-18 15:11 34.581417 -117.952977 122 9778ft 160kts
26-Jun-18 15:12 34.559511 -117.906026 120 10274ft 165kts
26-Jun-18 15:13 34.537182 -117.857237 120 10774ft 167kts
26-Jun-18 15:14 34.514011 -117.806677 119 11010ft 180kts
26-Jun-18 15:15 34.489425 -117.753090 119 11012ft 187kts
26-Jun-18 15:16 34.464298 -117.698349 119 11016ft 188kts
26-Jun-18 15:17 34.439505 -117.644436 119 11017ft 187kts
26-Jun-18 15:18 34.414236 -117.589631 119 11018ft 187kts
26-Jun-18 15:19 34.388987 -117.534942 119 11053ft 185kts
26-Jun-18 15:20 34.363698 -117.480289 119 11058ft 187kts
26-Jun-18 15:21 34.338256 -117.425461 119 11055ft 188kts
26-Jun-18 15:22 34.313099 -117.371342 119 11050ft 188kts
26-Jun-18 15:23 34.287780 -117.316851 120 11043ft 189kts
26-Jun-18 15:24 34.262023 -117.261508 120 11020ft 190kts
26-Jun-18 15:25 34.236166 -117.205945 119 11017ft 190kts
26-Jun-18 15:26 34.226837 -117.143168 89 10652ft 204kts
26-Jun-18 15:27 34.229079 -117.074738 85 9989ft 202kts
26-Jun-18 15:28 34.237274 -117.009252 78 9203ft 196kts
26-Jun-18 15:29 34.255810 -116.947986 59 8003ft 188kts
26-Jun-18 15:30 34.263642 -116.895882 90 7255ft 133kts
26-Jun-18 15:31 34.263767 -116.860112 91 6752ft 84kts
26-Jun-18 15:32 34.263642 -116.846440 152 6752ft 8kts
26-Jun-18 15:33 34.263268 -116.850144 268 6752ft 13kts
26-Jun-18 15:34 34.262852 -116.853627 181 6752ft 9kts
26-Jun-18 15:35 34.262736 -116.852832 2 6752ft 0kts

Navigation Log

Ident Type
Flight plan parsing failed, navigation log unavailable